sensor_id;sensor_type;location;lat;lon;timestamp;pressure;altitude;pressure_sealevel;temperature;humidity
58534;BME280;44109;52.398;7.024;2023-04-29T00:02:15;101039.53;;;10.42;100.00
58534;BME280;44109;52.398;7.024;2023-04-29T00:04:43;101027.94;;;10.36;100.00
58534;BME280;44109;52.398;7.024;2023-04-29T00:07:10;101040.72;;;10.41;100.00
58534;BME280;44109;52.398;7.024;2023-04-29T00:09:40;101041.81;;;10.56;100.00
58534;BME280;44109;52.398;7.024;2023-04-29T00:12:09;101050.63;;;10.42;100.00
58534;BME280;44109;52.398;7.024;2023-04-29T00:14:37;101052.44;;;10.34;100.00
58534;BME280;44109;52.398;7.024;2023-04-29T00:17:04;101042.09;;;10.31;100.00
58534;BME280;44109;52.398;7.024;2023-04-29T00:19:33;101050.81;;;10.33;100.00
58534;BME280;44109;52.398;7.024;2023-04-29T00:22:00;101047.78;;;10.38;100.00
58534;BME280;44109;52.398;7.024;2023-04-29T00:24:28;101051.25;;;10.35;100.00
58534;BME280;44109;52.398;7.024;2023-04-29T00:26:56;101053.03;;;10.44;100.00
58534;BME280;44109;52.398;7.024;2023-04-29T00:29:25;101058.88;;;10.38;100.00
58534;BME280;44109;52.398;7.024;2023-04-29T00:31:52;101060.63;;;10.47;100.00
58534;BME280;44109;52.398;7.024;2023-04-29T00:34:20;101048.75;;;10.46;100.00
58534;BME280;44109;52.398;7.024;2023-04-29T00:36:48;101070.03;;;10.42;100.00
58534;BME280;44109;52.398;7.024;2023-04-29T00:39:16;101065.88;;;10.52;100.00
58534;BME280;44109;52.398;7.024;2023-04-29T00:41:43;101052.19;;;10.59;100.00
58534;BME280;44109;52.398;7.024;2023-04-29T00:44:12;101070.00;;;10.77;100.00
58534;BME280;44109;52.398;7.024;2023-04-29T00:46:41;101063.94;;;10.91;100.00
58534;BME280;44109;52.398;7.024;2023-04-29T00:49:09;101058.75;;;11.09;100.00
58534;BME280;44109;52.398;7.024;2023-04-29T00:51:39;101053.16;;;10.86;100.00
58534;BME280;44109;52.398;7.024;2023-04-29T00:54:09;101074.88;;;11.03;100.00
58534;BME280;44109;52.398;7.024;2023-04-29T00:56:39;101071.03;;;10.88;100.00
58534;BME280;44109;52.398;7.024;2023-04-29T00:59:08;101077.28;;;10.66;100.00
58534;BME280;44109;52.398;7.024;2023-04-29T01:01:37;101075.09;;;10.75;100.00
58534;BME280;44109;52.398;7.024;2023-04-29T01:04:06;101069.06;;;10.70;100.00
58534;BME280;44109;52.398;7.024;2023-04-29T01:06:43;101094.69;;;10.82;100.00
58534;BME280;44109;52.398;7.024;2023-04-29T01:09:28;101091.44;;;10.61;100.00
58534;BME280;44109;52.398;7.024;2023-04-29T01:12:14;101096.56;;;10.59;100.00
58534;BME280;44109;52.398;7.024;2023-04-29T01:15:02;101111.53;;;10.54;100.00
58534;BME280;44109;52.398;7.024;2023-04-29T01:17:36;101111.16;;;10.56;100.00
58534;BME280;44109;52.398;7.024;2023-04-29T01:20:09;101118.50;;;10.48;100.00
58534;BME280;44109;52.398;7.024;2023-04-29T01:22:38;101121.97;;;10.61;100.00
58534;BME280;44109;52.398;7.024;2023-04-29T01:25:07;101122.00;;;10.80;100.00
58534;BME280;44109;52.398;7.024;2023-04-29T01:27:39;101117.81;;;10.71;100.00
58534;BME280;44109;52.398;7.024;2023-04-29T01:30:18;101117.38;;;10.69;100.00
58534;BME280;44109;52.398;7.024;2023-04-29T01:33:05;101124.63;;;10.73;100.00
58534;BME280;44109;52.398;7.024;2023-04-29T01:35:44;101134.56;;;10.74;100.00
58534;BME280;44109;52.398;7.024;2023-04-29T01:38:29;101132.34;;;10.64;100.00
58534;BME280;44109;52.398;7.024;2023-04-29T01:41:09;101133.88;;;10.81;100.00
58534;BME280;44109;52.398;7.024;2023-04-29T01:43:40;101142.06;;;10.74;100.00
58534;BME280;44109;52.398;7.024;2023-04-29T01:46:13;101145.22;;;10.72;100.00
58534;BME280;44109;52.398;7.024;2023-04-29T01:48:44;101151.34;;;10.46;100.00
58534;BME280;44109;52.398;7.024;2023-04-29T01:51:12;101147.88;;;10.49;100.00
58534;BME280;44109;52.398;7.024;2023-04-29T01:53:40;101146.72;;;10.34;100.00
58534;BME280;44109;52.398;7.024;2023-04-29T01:56:09;101151.72;;;10.45;100.00
58534;BME280;44109;52.398;7.024;2023-04-29T01:58:37;101152.88;;;10.44;100.00
58534;BME280;44109;52.398;7.024;2023-04-29T02:01:04;101149.94;;;10.72;100.00
58534;BME280;44109;52.398;7.024;2023-04-29T02:03:32;101159.31;;;10.48;100.00
58534;BME280;44109;52.398;7.024;2023-04-29T02:06:01;101162.72;;;10.41;100.00
58534;BME280;44109;52.398;7.024;2023-04-29T02:08:29;101161.47;;;10.54;100.00
58534;BME280;44109;52.398;7.024;2023-04-29T02:10:57;101162.88;;;10.48;100.00
58534;BME280;44109;52.398;7.024;2023-04-29T02:13:27;101170.06;;;10.33;100.00
58534;BME280;44109;52.398;7.024;2023-04-29T02:15:54;101175.66;;;10.21;100.00
58534;BME280;44109;52.398;7.024;2023-04-29T02:18:22;101179.69;;;10.08;100.00
58534;BME280;44109;52.398;7.024;2023-04-29T02:20:50;101173.69;;;10.22;100.00
58534;BME280;44109;52.398;7.024;2023-04-29T02:23:19;101177.69;;;10.36;100.00
58534;BME280;44109;52.398;7.024;2023-04-29T02:25:46;101174.63;;;10.26;100.00
58534;BME280;44109;52.398;7.024;2023-04-29T02:28:14;101183.34;;;10.12;100.00
58534;BME280;44109;52.398;7.024;2023-04-29T02:30:44;101188.03;;;10.24;100.00
58534;BME280;44109;52.398;7.024;2023-04-29T02:33:11;101189.63;;;10.09;100.00
58534;BME280;44109;52.398;7.024;2023-04-29T02:35:39;101194.28;;;10.21;100.00
58534;BME280;44109;52.398;7.024;2023-04-29T02:38:07;101204.78;;;10.27;100.00
58534;BME280;44109;52.398;7.024;2023-04-29T02:40:40;101203.50;;;10.09;100.00
58534;BME280;44109;52.398;7.024;2023-04-29T02:43:08;101208.25;;;10.08;100.00
58534;BME280;44109;52.398;7.024;2023-04-29T02:45:36;101202.31;;;10.10;100.00
58534;BME280;44109;52.398;7.024;2023-04-29T02:48:05;101205.53;;;10.12;100.00
58534;BME280;44109;52.398;7.024;2023-04-29T02:50:33;101207.56;;;10.27;100.00
58534;BME280;44109;52.398;7.024;2023-04-29T02:53:01;101215.31;;;10.37;100.00
58534;BME280;44109;52.398;7.024;2023-04-29T02:55:28;101210.81;;;10.01;100.00
58534;BME280;44109;52.398;7.024;2023-04-29T02:57:56;101222.59;;;9.82;100.00
58534;BME280;44109;52.398;7.024;2023-04-29T03:00:24;101228.03;;;9.95;100.00
58534;BME280;44109;52.398;7.024;2023-04-29T03:02:51;101219.00;;;9.82;100.00
58534;BME280;44109;52.398;7.024;2023-04-29T03:05:20;101229.28;;;9.81;100.00
58534;BME280;44109;52.398;7.024;2023-04-29T03:07:48;101232.28;;;9.76;100.00
58534;BME280;44109;52.398;7.024;2023-04-29T03:10:15;101237.59;;;9.81;100.00
58534;BME280;44109;52.398;7.024;2023-04-29T03:12:44;101239.31;;;9.86;100.00
58534;BME280;44109;52.398;7.024;2023-04-29T03:15:11;101244.91;;;9.74;100.00
58534;BME280;44109;52.398;7.024;2023-04-29T03:17:39;101239.47;;;9.77;100.00
58534;BME280;44109;52.398;7.024;2023-04-29T03:20:07;101242.25;;;9.77;100.00
58534;BME280;44109;52.398;7.024;2023-04-29T03:22:38;101245.19;;;9.84;100.00
58534;BME280;44109;52.398;7.024;2023-04-29T03:25:06;101246.09;;;9.88;100.00
58534;BME280;44109;52.398;7.024;2023-04-29T03:27:35;101245.00;;;9.77;100.00
58534;BME280;44109;52.398;7.024;2023-04-29T03:30:03;101223.50;;;9.58;100.00
58534;BME280;44109;52.398;7.024;2023-04-29T03:32:32;101253.75;;;9.79;100.00
58534;BME280;44109;52.398;7.024;2023-04-29T03:34:59;101252.44;;;9.89;100.00
58534;BME280;44109;52.398;7.024;2023-04-29T03:37:27;101256.06;;;10.21;100.00
58534;BME280;44109;52.398;7.024;2023-04-29T03:39:56;101252.03;;;10.03;100.00
58534;BME280;44109;52.398;7.024;2023-04-29T03:42:23;101257.22;;;10.20;100.00
58534;BME280;44109;52.398;7.024;2023-04-29T03:44:51;101265.44;;;10.16;100.00
58534;BME280;44109;52.398;7.024;2023-04-29T03:47:18;101264.28;;;10.02;100.00
58534;BME280;44109;52.398;7.024;2023-04-29T03:49:46;101270.22;;;9.88;100.00
58534;BME280;44109;52.398;7.024;2023-04-29T03:52:14;101268.84;;;10.10;100.00
58534;BME280;44109;52.398;7.024;2023-04-29T03:54:42;101282.59;;;9.90;100.00
58534;BME280;44109;52.398;7.024;2023-04-29T03:57:11;101276.25;;;10.06;100.00
58534;BME280;44109;52.398;7.024;2023-04-29T03:59:38;101281.81;;;10.06;100.00
58534;BME280;44109;52.398;7.024;2023-04-29T04:02:06;101279.75;;;10.03;100.00
58534;BME280;44109;52.398;7.024;2023-04-29T04:04:33;101282.66;;;9.94;100.00
58534;BME280;44109;52.398;7.024;2023-04-29T04:07:01;101291.84;;;10.10;100.00
58534;BME280;44109;52.398;7.024;2023-04-29T04:09:29;101297.78;;;9.97;100.00
58534;BME280;44109;52.398;7.024;2023-04-29T04:11:56;101308.88;;;9.97;100.00
58534;BME280;44109;52.398;7.024;2023-04-29T04:14:25;101301.25;;;9.94;100.00
58534;BME280;44109;52.398;7.024;2023-04-29T04:16:53;101298.59;;;9.97;100.00
58534;BME280;44109;52.398;7.024;2023-04-29T04:19:20;101299.50;;;10.01;100.00
58534;BME280;44109;52.398;7.024;2023-04-29T04:21:48;101305.63;;;9.66;100.00
58534;BME280;44109;52.398;7.024;2023-04-29T04:24:16;101314.81;;;9.83;100.00
58534;BME280;44109;52.398;7.024;2023-04-29T04:26:43;101310.69;;;10.05;100.00
58534;BME280;44109;52.398;7.024;2023-04-29T04:29:11;101312.56;;;10.01;100.00
58534;BME280;44109;52.398;7.024;2023-04-29T04:31:40;101312.84;;;9.83;100.00
58534;BME280;44109;52.398;7.024;2023-04-29T04:34:08;101315.06;;;10.06;100.00
58534;BME280;44109;52.398;7.024;2023-04-29T04:36:35;101319.59;;;9.98;100.00
58534;BME280;44109;52.398;7.024;2023-04-29T04:39:03;101321.06;;;9.80;100.00
58534;BME280;44109;52.398;7.024;2023-04-29T04:41:31;101330.03;;;9.89;100.00
58534;BME280;44109;52.398;7.024;2023-04-29T04:43:58;101341.00;;;9.85;100.00
58534;BME280;44109;52.398;7.024;2023-04-29T04:46:26;101336.81;;;10.04;100.00
58534;BME280;44109;52.398;7.024;2023-04-29T04:48:55;101347.91;;;10.04;100.00
58534;BME280;44109;52.398;7.024;2023-04-29T04:51:22;101337.00;;;9.83;100.00
58534;BME280;44109;52.398;7.024;2023-04-29T04:53:50;101343.75;;;9.98;100.00
58534;BME280;44109;52.398;7.024;2023-04-29T04:56:18;101338.88;;;9.95;100.00
58534;BME280;44109;52.398;7.024;2023-04-29T04:58:45;101341.50;;;10.03;100.00
58534;BME280;44109;52.398;7.024;2023-04-29T05:01:13;101357.56;;;10.10;100.00
58534;BME280;44109;52.398;7.024;2023-04-29T05:03:40;101359.78;;;10.04;100.00
58534;BME280;44109;52.398;7.024;2023-04-29T05:06:09;101359.78;;;10.04;100.00
58534;BME280;44109;52.398;7.024;2023-04-29T05:08:37;101368.97;;;9.80;100.00
58534;BME280;44109;52.398;7.024;2023-04-29T05:11:04;101375.38;;;9.97;100.00
58534;BME280;44109;52.398;7.024;2023-04-29T05:13:33;101365.28;;;9.76;100.00
58534;BME280;44109;52.398;7.024;2023-04-29T05:16:01;101378.56;;;9.83;100.00
58534;BME280;44109;52.398;7.024;2023-04-29T05:18:30;101386.09;;;10.10;100.00
58534;BME280;44109;52.398;7.024;2023-04-29T05:20:58;101383.34;;;9.98;100.00
58534;BME280;44109;52.398;7.024;2023-04-29T05:23:27;101381.84;;;10.01;100.00
58534;BME280;44109;52.398;7.024;2023-04-29T05:25:54;101397.16;;;9.82;100.00
58534;BME280;44109;52.398;7.024;2023-04-29T05:28:22;101394.00;;;9.84;100.00
58534;BME280;44109;52.398;7.024;2023-04-29T05:30:50;101390.03;;;10.09;100.00
58534;BME280;44109;52.398;7.024;2023-04-29T05:33:18;101406.84;;;9.76;100.00
58534;BME280;44109;52.398;7.024;2023-04-29T05:35:46;101403.34;;;9.91;100.00
58534;BME280;44109;52.398;7.024;2023-04-29T05:38:13;101410.28;;;9.85;100.00
58534;BME280;44109;52.398;7.024;2023-04-29T05:40:42;101408.41;;;9.89;100.00
58534;BME280;44109;52.398;7.024;2023-04-29T05:43:10;101411.88;;;9.99;100.00
58534;BME280;44109;52.398;7.024;2023-04-29T05:45:38;101416.03;;;9.93;100.00
58534;BME280;44109;52.398;7.024;2023-04-29T05:48:05;101421.31;;;10.10;100.00
58534;BME280;44109;52.398;7.024;2023-04-29T05:50:33;101413.28;;;9.93;100.00
58534;BME280;44109;52.398;7.024;2023-04-29T05:53:01;101421.31;;;10.10;100.00
58534;BME280;44109;52.398;7.024;2023-04-29T05:55:29;101421.34;;;9.98;100.00
58534;BME280;44109;52.398;7.024;2023-04-29T05:57:59;101429.88;;;10.05;100.00
58534;BME280;44109;52.398;7.024;2023-04-29T06:00:27;101433.44;;;10.18;100.00
58534;BME280;44109;52.398;7.024;2023-04-29T06:02:54;101439.13;;;10.09;100.00
58534;BME280;44109;52.398;7.024;2023-04-29T06:05:22;101446.97;;;10.07;100.00
58534;BME280;44109;52.398;7.024;2023-04-29T06:07:50;101439.72;;;10.43;100.00
58534;BME280;44109;52.398;7.024;2023-04-29T06:10:18;101444.31;;;10.51;100.00
58534;BME280;44109;52.398;7.024;2023-04-29T06:12:46;101448.25;;;10.50;100.00
58534;BME280;44109;52.398;7.024;2023-04-29T06:15:17;101453.63;;;10.18;100.00
58534;BME280;44109;52.398;7.024;2023-04-29T06:17:45;101458.47;;;10.33;100.00
58534;BME280;44109;52.398;7.024;2023-04-29T06:20:13;101466.34;;;10.19;100.00
58534;BME280;44109;52.398;7.024;2023-04-29T06:22:41;101477.06;;;10.33;100.00
58534;BME280;44109;52.398;7.024;2023-04-29T06:25:08;101467.56;;;10.46;100.00
58534;BME280;44109;52.398;7.024;2023-04-29T06:27:36;101476.47;;;10.68;100.00
58534;BME280;44109;52.398;7.024;2023-04-29T06:30:05;101475.56;;;10.63;100.00
58534;BME280;44109;52.398;7.024;2023-04-29T06:32:35;101474.44;;;10.52;100.00
58534;BME280;44109;52.398;7.024;2023-04-29T06:35:02;101476.22;;;10.45;100.00
58534;BME280;44109;52.398;7.024;2023-04-29T06:37:30;101482.91;;;10.44;100.00
58534;BME280;44109;52.398;7.024;2023-04-29T06:39:58;101488.78;;;10.82;100.00
58534;BME280;44109;52.398;7.024;2023-04-29T06:42:26;101486.97;;;10.74;100.00
58534;BME280;44109;52.398;7.024;2023-04-29T06:44:53;101492.41;;;10.71;100.00
58534;BME280;44109;52.398;7.024;2023-04-29T06:47:21;101497.22;;;11.02;100.00
58534;BME280;44109;52.398;7.024;2023-04-29T06:49:50;101494.00;;;11.00;100.00
58534;BME280;44109;52.398;7.024;2023-04-29T06:52:18;101501.91;;;10.85;100.00
58534;BME280;44109;52.398;7.024;2023-04-29T06:54:46;101505.13;;;11.00;100.00
58534;BME280;44109;52.398;7.024;2023-04-29T06:57:13;101502.41;;;11.03;100.00
58534;BME280;44109;52.398;7.024;2023-04-29T06:59:41;101506.09;;;11.07;100.00
58534;BME280;44109;52.398;7.024;2023-04-29T07:02:08;101516.31;;;10.75;100.00
58534;BME280;44109;52.398;7.024;2023-04-29T07:04:36;101520.53;;;10.85;100.00
58534;BME280;44109;52.398;7.024;2023-04-29T07:07:05;101520.19;;;11.14;100.00
58534;BME280;44109;52.398;7.024;2023-04-29T07:09:33;101530.81;;;11.12;100.00
58534;BME280;44109;52.398;7.024;2023-04-29T07:12:00;101537.53;;;11.11;100.00
58534;BME280;44109;52.398;7.024;2023-04-29T07:14:29;101534.00;;;11.27;100.00
58534;BME280;44109;52.398;7.024;2023-04-29T07:16:58;101539.28;;;11.32;100.00
58534;BME280;44109;52.398;7.024;2023-04-29T07:19:25;101539.63;;;11.14;100.00
58534;BME280;44109;52.398;7.024;2023-04-29T07:21:53;101548.41;;;11.48;100.00
58534;BME280;44109;52.398;7.024;2023-04-29T07:24:22;101541.22;;;11.15;100.00
58534;BME280;44109;52.398;7.024;2023-04-29T07:26:50;101548.59;;;11.39;100.00
58534;BME280;44109;52.398;7.024;2023-04-29T07:29:17;101556.63;;;11.13;100.00
58534;BME280;44109;52.398;7.024;2023-04-29T07:31:45;101550.50;;;11.07;100.00
58534;BME280;44109;52.398;7.024;2023-04-29T07:34:13;101536.09;;;10.74;100.00
58534;BME280;44109;52.398;7.024;2023-04-29T07:36:40;101559.63;;;11.36;100.00
58534;BME280;44109;52.398;7.024;2023-04-29T07:39:08;101560.16;;;10.98;100.00
58534;BME280;44109;52.398;7.024;2023-04-29T07:41:38;101569.72;;;11.28;100.00
58534;BME280;44109;52.398;7.024;2023-04-29T07:44:06;101563.06;;;11.17;100.00
58534;BME280;44109;52.398;7.024;2023-04-29T07:46:33;101570.66;;;11.48;100.00
58534;BME280;44109;52.398;7.024;2023-04-29T07:49:01;101579.50;;;11.22;100.00
58534;BME280;44109;52.398;7.024;2023-04-29T07:51:30;101585.16;;;11.41;100.00
58534;BME280;44109;52.398;7.024;2023-04-29T07:53:57;101583.41;;;11.65;100.00
58534;BME280;44109;52.398;7.024;2023-04-29T07:56:25;101587.69;;;11.78;100.00
58534;BME280;44109;52.398;7.024;2023-04-29T07:58:54;101604.44;;;12.29;100.00
58534;BME280;44109;52.398;7.024;2023-04-29T08:01:22;101595.31;;;12.29;100.00
58534;BME280;44109;52.398;7.024;2023-04-29T08:03:49;101600.69;;;12.22;100.00
58534;BME280;44109;52.398;7.024;2023-04-29T08:06:17;101611.91;;;12.25;100.00
58534;BME280;44109;52.398;7.024;2023-04-29T08:08:47;101616.44;;;11.38;100.00
58534;BME280;44109;52.398;7.024;2023-04-29T08:11:15;101613.25;;;11.68;100.00
58534;BME280;44109;52.398;7.024;2023-04-29T08:13:44;101619.38;;;11.89;100.00
58534;BME280;44109;52.398;7.024;2023-04-29T08:16:13;101636.13;;;11.33;100.00
58534;BME280;44109;52.398;7.024;2023-04-29T08:18:40;101635.81;;;11.95;100.00
58534;BME280;44109;52.398;7.024;2023-04-29T08:21:08;101623.47;;;11.80;100.00
58534;BME280;44109;52.398;7.024;2023-04-29T08:23:37;101636.69;;;12.14;100.00
58534;BME280;44109;52.398;7.024;2023-04-29T08:26:05;101640.47;;;12.57;100.00
58534;BME280;44109;52.398;7.024;2023-04-29T08:28:33;101641.00;;;12.63;100.00
58534;BME280;44109;52.398;7.024;2023-04-29T08:31:00;101632.81;;;12.70;100.00
58534;BME280;44109;52.398;7.024;2023-04-29T08:33:30;101630.69;;;11.97;100.00
58534;BME280;44109;52.398;7.024;2023-04-29T08:35:58;101636.31;;;12.67;100.00
58534;BME280;44109;52.398;7.024;2023-04-29T08:38:28;101635.47;;;13.02;100.00
58534;BME280;44109;52.398;7.024;2023-04-29T08:40:57;101638.72;;;13.04;100.00
58534;BME280;44109;52.398;7.024;2023-04-29T08:43:25;101641.78;;;13.18;100.00
58534;BME280;44109;52.398;7.024;2023-04-29T08:45:54;101648.16;;;13.18;100.00
58534;BME280;44109;52.398;7.024;2023-04-29T08:48:24;101641.78;;;13.18;100.00
58534;BME280;44109;52.398;7.024;2023-04-29T08:50:55;101645.09;;;13.04;100.00
58534;BME280;44109;52.398;7.024;2023-04-29T08:53:23;101661.53;;;13.94;100.00
58534;BME280;44109;52.398;7.024;2023-04-29T08:55:52;101653.00;;;13.83;100.00
58534;BME280;44109;52.398;7.024;2023-04-29T08:58:21;101657.03;;;14.09;100.00
58534;BME280;44109;52.398;7.024;2023-04-29T09:00:51;101656.28;;;13.89;100.00
58534;BME280;44109;52.398;7.024;2023-04-29T09:03:23;101653.06;;;13.87;100.00
58534;BME280;44109;52.398;7.024;2023-04-29T09:05:55;101659.53;;;14.40;97.65
58534;BME280;44109;52.398;7.024;2023-04-29T09:08:27;101660.75;;;14.43;99.30
58534;BME280;44109;52.398;7.024;2023-04-29T09:10:56;101668.91;;;14.52;97.39
58534;BME280;44109;52.398;7.024;2023-04-29T09:13:26;101665.41;;;14.58;93.00
58534;BME280;44109;52.398;7.024;2023-04-29T09:15:55;101665.97;;;14.71;88.62
58534;BME280;44109;52.398;7.024;2023-04-29T09:18:42;101678.09;;;15.09;88.57
58534;BME280;44109;52.398;7.024;2023-04-29T09:21:16;101680.72;;;14.98;85.30
58534;BME280;44109;52.398;7.024;2023-04-29T09:23:45;101679.25;;;15.08;84.62
58534;BME280;44109;52.398;7.024;2023-04-29T09:26:13;101688.50;;;15.12;84.82
58534;BME280;44109;52.398;7.024;2023-04-29T09:28:42;101693.53;;;14.99;80.59
58534;BME280;44109;52.398;7.024;2023-04-29T09:31:11;101685.53;;;14.71;77.11
58534;BME280;44109;52.398;7.024;2023-04-29T09:33:51;101680.28;;;14.43;84.39
58534;BME280;44109;52.398;7.024;2023-04-29T09:36:41;101684.31;;;14.98;81.50
58534;BME280;44109;52.398;7.024;2023-04-29T09:39:12;101687.38;;;14.60;82.01
58534;BME280;44109;52.398;7.024;2023-04-29T09:41:56;101683.91;;;14.96;81.10
58534;BME280;44109;52.398;7.024;2023-04-29T09:44:29;101688.44;;;14.78;80.96
58534;BME280;44109;52.398;7.024;2023-04-29T09:46:59;101694.16;;;14.85;81.49
58534;BME280;44109;52.398;7.024;2023-04-29T09:49:29;101705.41;;;14.92;84.08
58534;BME280;44109;52.398;7.024;2023-04-29T09:52:02;101700.25;;;15.58;79.59
58534;BME280;44109;52.398;7.024;2023-04-29T09:54:33;101696.56;;;15.51;78.86
58534;BME280;44109;52.398;7.024;2023-04-29T09:57:04;101704.19;;;15.54;84.16
58534;BME280;44109;52.398;7.024;2023-04-29T09:59:33;101697.25;;;15.10;79.40
58534;BME280;44109;52.398;7.024;2023-04-29T10:02:11;101707.00;;;14.93;77.89
58534;BME280;44109;52.398;7.024;2023-04-29T10:04:44;101697.09;;;14.46;81.57
58534;BME280;44109;52.398;7.024;2023-04-29T10:07:15;101700.25;;;14.94;80.43
58534;BME280;44109;52.398;7.024;2023-04-29T10:09:44;101711.06;;;15.26;78.48
58534;BME280;44109;52.398;7.024;2023-04-29T10:12:15;101708.47;;;14.84;81.68
58534;BME280;44109;52.398;7.024;2023-04-29T10:14:47;101694.69;;;15.28;77.98
58534;BME280;44109;52.398;7.024;2023-04-29T10:17:23;101715.78;;;15.22;75.58
58534;BME280;44109;52.398;7.024;2023-04-29T10:20:02;101701.59;;;15.38;78.62
58534;BME280;44109;52.398;7.024;2023-04-29T10:22:40;101700.88;;;16.19;78.31
58534;BME280;44109;52.398;7.024;2023-04-29T10:25:12;101720.72;;;16.00;75.27
58534;BME280;44109;52.398;7.024;2023-04-29T10:27:42;101701.59;;;16.12;77.73
58534;BME280;44109;52.398;7.024;2023-04-29T10:30:11;101707.38;;;16.27;71.89
58534;BME280;44109;52.398;7.024;2023-04-29T10:32:40;101710.28;;;15.96;73.33
58534;BME280;44109;52.398;7.024;2023-04-29T10:35:09;101701.72;;;16.23;78.52
58534;BME280;44109;52.398;7.024;2023-04-29T10:37:40;101690.47;;;15.41;77.05
58534;BME280;44109;52.398;7.024;2023-04-29T10:40:12;101711.13;;;16.01;81.83
58534;BME280;44109;52.398;7.024;2023-04-29T10:42:44;101714.53;;;16.24;76.62
58534;BME280;44109;52.398;7.024;2023-04-29T10:45:21;101717.91;;;16.03;73.08
58534;BME280;44109;52.398;7.024;2023-04-29T10:48:12;101716.25;;;15.61;nan
58534;BME280;44109;52.398;7.024;2023-04-29T10:50:59;101710.19;;;15.56;72.50
58534;BME280;44109;52.398;7.024;2023-04-29T10:53:30;101708.34;;;16.04;72.36
58534;BME280;44109;52.398;7.024;2023-04-29T10:56:02;101711.13;;;16.01;71.83
58534;BME280;44109;52.398;7.024;2023-04-29T10:58:41;101711.13;;;16.01;69.89
58534;BME280;44109;52.398;7.024;2023-04-29T11:01:12;101707.25;;;16.16;67.53
58534;BME280;44109;52.398;7.024;2023-04-29T11:03:48;101706.19;;;16.31;70.31
58534;BME280;44109;52.398;7.024;2023-04-29T11:06:22;101707.50;;;15.63;73.05
58534;BME280;44109;52.398;7.024;2023-04-29T11:09:02;101712.84;;;14.81;74.92
58534;BME280;44109;52.398;7.024;2023-04-29T11:14:31;101718.38;;;15.38;70.19
58534;BME280;44109;52.398;7.024;2023-04-29T11:17:04;101711.00;;;15.22;70.36
58534;BME280;44109;52.398;7.024;2023-04-29T11:19:38;101714.03;;;15.74;70.08
58534;BME280;44109;52.398;7.024;2023-04-29T11:22:10;101710.44;;;16.14;69.40
58534;BME280;44109;52.398;7.024;2023-04-29T11:24:52;101705.72;;;15.47;69.69
58534;BME280;44109;52.398;7.024;2023-04-29T11:27:23;101694.50;;;15.78;69.89
58534;BME280;44109;52.398;7.024;2023-04-29T11:29:52;101716.03;;;15.43;75.36
58534;BME280;44109;52.398;7.024;2023-04-29T11:32:29;101727.28;;;15.17;72.57
58534;BME280;44109;52.398;7.024;2023-04-29T11:35:08;101714.78;;;15.37;73.13
58534;BME280;44109;52.398;7.024;2023-04-29T11:37:37;101720.66;;;15.96;69.57
58534;BME280;44109;52.398;7.024;2023-04-29T11:40:08;101703.31;;;16.24;64.69
58534;BME280;44109;52.398;7.024;2023-04-29T11:42:40;101714.75;;;16.53;63.34
58534;BME280;44109;52.398;7.024;2023-04-29T11:45:10;101716.88;;;16.70;66.24
58534;BME280;44109;52.398;7.024;2023-04-29T11:47:42;101719.28;;;17.37;66.46
58534;BME280;44109;52.398;7.024;2023-04-29T11:50:11;101727.53;;;17.05;67.92
58534;BME280;44109;52.398;7.024;2023-04-29T11:52:41;101724.25;;;16.37;66.81
58534;BME280;44109;52.398;7.024;2023-04-29T11:55:11;101731.47;;;15.97;66.32
58534;BME280;44109;52.398;7.024;2023-04-29T11:57:39;101722.31;;;16.48;63.29
58534;BME280;44109;52.398;7.024;2023-04-29T12:00:08;101724.09;;;16.71;61.13
58534;BME280;44109;52.398;7.024;2023-04-29T12:02:37;101741.31;;;16.25;64.79
58534;BME280;44109;52.398;7.024;2023-04-29T12:05:06;101734.16;;;16.72;64.08
58534;BME280;44109;52.398;7.024;2023-04-29T12:07:34;101732.66;;;16.92;62.99
58534;BME280;44109;52.398;7.024;2023-04-29T12:10:02;101731.81;;;16.81;63.05
58534;BME280;44109;52.398;7.024;2023-04-29T12:12:36;101728.84;;;17.25;63.80
58534;BME280;44109;52.398;7.024;2023-04-29T12:15:07;101726.28;;;16.95;64.19
58534;BME280;44109;52.398;7.024;2023-04-29T12:17:36;101725.50;;;16.47;59.65
58534;BME280;44109;52.398;7.024;2023-04-29T12:20:05;101718.44;;;16.64;63.52
58534;BME280;44109;52.398;7.024;2023-04-29T12:22:34;101736.25;;;16.38;62.32
58534;BME280;44109;52.398;7.024;2023-04-29T12:25:02;101732.31;;;16.46;63.44
58534;BME280;44109;52.398;7.024;2023-04-29T12:27:31;101734.47;;;16.63;65.89
58534;BME280;44109;52.398;7.024;2023-04-29T12:30:01;101732.16;;;16.28;66.30
58534;BME280;44109;52.398;7.024;2023-04-29T12:32:33;101730.28;;;16.91;63.51
58534;BME280;44109;52.398;7.024;2023-04-29T12:35:01;101729.81;;;17.58;62.20
58534;BME280;44109;52.398;7.024;2023-04-29T12:37:29;101730.19;;;16.80;64.82
58534;BME280;44109;52.398;7.024;2023-04-29T12:39:57;101734.84;;;17.17;59.98
58534;BME280;44109;52.398;7.024;2023-04-29T12:42:31;101732.88;;;17.28;62.10
58534;BME280;44109;52.398;7.024;2023-04-29T12:45:01;101730.03;;;17.21;58.70
58534;BME280;44109;52.398;7.024;2023-04-29T12:47:31;101702.13;;;16.73;60.40
58534;BME280;44109;52.398;7.024;2023-04-29T12:49:59;101722.88;;;16.68;58.84
58534;BME280;44109;52.398;7.024;2023-04-29T12:52:27;101727.63;;;16.61;58.11
58534;BME280;44109;52.398;7.024;2023-04-29T12:54:55;101724.41;;;17.21;58.63
58534;BME280;44109;52.398;7.024;2023-04-29T12:57:23;101722.63;;;17.71;55.65
58534;BME280;44109;52.398;7.024;2023-04-29T12:59:51;101734.38;;;18.20;54.93
58534;BME280;44109;52.398;7.024;2023-04-29T13:02:20;101729.94;;;18.05;55.96